sensor_id;sensor_type;location;lat;lon;timestamp;temperature;humidity
75161;DHT22;67232;50.096;8.716;2023-05-19T00:00:57;14.30;62.40
75161;DHT22;67232;50.096;8.716;2023-05-19T00:03:24;14.20;62.30
75161;DHT22;67232;50.096;8.716;2023-05-19T00:05:53;14.20;62.30
75161;DHT22;67232;50.096;8.716;2023-05-19T00:08:22;14.20;62.60
75161;DHT22;67232;50.096;8.716;2023-05-19T00:10:50;14.20;62.50
75161;DHT22;67232;50.096;8.716;2023-05-19T00:13:15;14.20;62.20
75161;DHT22;67232;50.096;8.716;2023-05-19T00:15:41;14.20;62.30
75161;DHT22;67232;50.096;8.716;2023-05-19T00:18:07;14.20;62.50
75161;DHT22;67232;50.096;8.716;2023-05-19T00:20:33;14.10;62.40
75161;DHT22;67232;50.096;8.716;2023-05-19T00:22:58;14.10;62.80
75161;DHT22;67232;50.096;8.716;2023-05-19T00:25:24;14.10;62.80
75161;DHT22;67232;50.096;8.716;2023-05-19T00:27:50;14.10;62.80
75161;DHT22;67232;50.096;8.716;2023-05-19T00:30:18;14.20;61.60
75161;DHT22;67232;50.096;8.716;2023-05-19T00:32:47;14.20;61.90
75161;DHT22;67232;50.096;8.716;2023-05-19T00:35:13;14.10;62.40
75161;DHT22;67232;50.096;8.716;2023-05-19T00:37:38;14.20;62.20
75161;DHT22;67232;50.096;8.716;2023-05-19T00:40:04;14.20;62.10
75161;DHT22;67232;50.096;8.716;2023-05-19T00:42:31;14.20;62.20
75161;DHT22;67232;50.096;8.716;2023-05-19T00:44:57;14.10;62.20
75161;DHT22;67232;50.096;8.716;2023-05-19T00:47:22;14.10;62.50
75161;DHT22;67232;50.096;8.716;2023-05-19T00:49:50;14.00;62.40
75161;DHT22;67232;50.096;8.716;2023-05-19T00:52:18;14.10;62.50
75161;DHT22;67232;50.096;8.716;2023-05-19T00:54:44;14.00;62.30
75161;DHT22;67232;50.096;8.716;2023-05-19T00:57:11;14.00;62.60
75161;DHT22;67232;50.096;8.716;2023-05-19T00:59:40;14.00;62.60
75161;DHT22;67232;50.096;8.716;2023-05-19T01:02:05;14.00;62.70
75161;DHT22;67232;50.096;8.716;2023-05-19T01:04:32;14.00;63.00
75161;DHT22;67232;50.096;8.716;2023-05-19T01:07:00;13.90;62.80
75161;DHT22;67232;50.096;8.716;2023-05-19T01:09:25;13.90;63.10
75161;DHT22;67232;50.096;8.716;2023-05-19T01:11:51;13.80;63.30
75161;DHT22;67232;50.096;8.716;2023-05-19T01:14:18;13.80;63.20
75161;DHT22;67232;50.096;8.716;2023-05-19T01:17:06;13.80;63.10
75161;DHT22;67232;50.096;8.716;2023-05-19T01:22:43;13.80;63.10
75161;DHT22;67232;50.096;8.716;2023-05-19T01:28:52;13.80;63.20
75161;DHT22;67232;50.096;8.716;2023-05-19T01:31:28;13.70;62.90
75161;DHT22;67232;50.096;8.716;2023-05-19T01:33:55;13.70;63.10
75161;DHT22;67232;50.096;8.716;2023-05-19T01:36:25;13.70;63.30
75161;DHT22;67232;50.096;8.716;2023-05-19T01:38:58;13.70;62.90
75161;DHT22;67232;50.096;8.716;2023-05-19T01:41:25;13.70;62.80
75161;DHT22;67232;50.096;8.716;2023-05-19T01:43:53;13.70;62.60
75161;DHT22;67232;50.096;8.716;2023-05-19T01:46:20;13.70;62.90
75161;DHT22;67232;50.096;8.716;2023-05-19T01:48:49;13.70;63.30
75161;DHT22;67232;50.096;8.716;2023-05-19T01:51:17;13.60;63.40
75161;DHT22;67232;50.096;8.716;2023-05-19T01:53:42;13.60;63.60
75161;DHT22;67232;50.096;8.716;2023-05-19T01:56:11;13.70;63.40
75161;DHT22;67232;50.096;8.716;2023-05-19T01:58:47;13.60;63.30
75161;DHT22;67232;50.096;8.716;2023-05-19T02:01:29;13.70;63.20
75161;DHT22;67232;50.096;8.716;2023-05-19T02:09:27;13.50;63.40
75161;DHT22;67232;50.096;8.716;2023-05-19T02:14:58;13.40;63.90
75161;DHT22;67232;50.096;8.716;2023-05-19T02:17:31;13.40;63.90
75161;DHT22;67232;50.096;8.716;2023-05-19T02:20:00;13.40;64.40
75161;DHT22;67232;50.096;8.716;2023-05-19T02:22:29;13.40;64.30
75161;DHT22;67232;50.096;8.716;2023-05-19T02:24:59;13.40;64.20
75161;DHT22;67232;50.096;8.716;2023-05-19T02:27:27;13.40;64.30
75161;DHT22;67232;50.096;8.716;2023-05-19T02:29:54;13.40;64.60
75161;DHT22;67232;50.096;8.716;2023-05-19T02:32:22;13.40;64.50
75161;DHT22;67232;50.096;8.716;2023-05-19T02:34:48;13.30;64.70
75161;DHT22;67232;50.096;8.716;2023-05-19T02:37:14;13.30;64.50
75161;DHT22;67232;50.096;8.716;2023-05-19T02:39:41;13.30;64.50
75161;DHT22;67232;50.096;8.716;2023-05-19T02:42:09;13.30;64.70
75161;DHT22;67232;50.096;8.716;2023-05-19T02:44:39;13.30;64.80
75161;DHT22;67232;50.096;8.716;2023-05-19T02:47:04;13.30;64.60
75161;DHT22;67232;50.096;8.716;2023-05-19T02:49:32;13.30;64.40
75161;DHT22;67232;50.096;8.716;2023-05-19T02:52:01;13.30;64.40
75161;DHT22;67232;50.096;8.716;2023-05-19T02:54:28;13.30;64.60
75161;DHT22;67232;50.096;8.716;2023-05-19T02:56:56;13.30;64.50
75161;DHT22;67232;50.096;8.716;2023-05-19T02:59:22;13.30;64.10
75161;DHT22;67232;50.096;8.716;2023-05-19T03:01:54;13.30;64.00
75161;DHT22;67232;50.096;8.716;2023-05-19T03:04:19;13.30;64.10
75161;DHT22;67232;50.096;8.716;2023-05-19T03:06:45;13.30;64.40
75161;DHT22;67232;50.096;8.716;2023-05-19T03:09:11;13.30;64.50
75161;DHT22;67232;50.096;8.716;2023-05-19T03:11:40;13.30;64.40
75161;DHT22;67232;50.096;8.716;2023-05-19T03:14:05;13.30;64.60
75161;DHT22;67232;50.096;8.716;2023-05-19T03:16:33;13.30;64.10
75161;DHT22;67232;50.096;8.716;2023-05-19T03:18:59;13.30;64.70
75161;DHT22;67232;50.096;8.716;2023-05-19T03:21:25;13.30;64.00
75161;DHT22;67232;50.096;8.716;2023-05-19T03:23:53;13.30;64.20
75161;DHT22;67232;50.096;8.716;2023-05-19T03:26:21;13.30;64.30
75161;DHT22;67232;50.096;8.716;2023-05-19T03:28:47;13.30;64.50
75161;DHT22;67232;50.096;8.716;2023-05-19T03:31:13;13.30;63.90
75161;DHT22;67232;50.096;8.716;2023-05-19T03:33:41;13.30;64.10
75161;DHT22;67232;50.096;8.716;2023-05-19T03:36:06;13.30;64.00
75161;DHT22;67232;50.096;8.716;2023-05-19T03:38:34;13.30;64.20
75161;DHT22;67232;50.096;8.716;2023-05-19T03:41:00;13.30;64.70
75161;DHT22;67232;50.096;8.716;2023-05-19T03:43:25;13.20;64.20
75161;DHT22;67232;50.096;8.716;2023-05-19T03:45:51;13.20;64.60
75161;DHT22;67232;50.096;8.716;2023-05-19T03:48:17;13.20;64.80
75161;DHT22;67232;50.096;8.716;2023-05-19T03:50:43;13.20;64.80
75161;DHT22;67232;50.096;8.716;2023-05-19T03:53:09;13.20;64.70
75161;DHT22;67232;50.096;8.716;2023-05-19T03:55:37;13.20;64.60
75161;DHT22;67232;50.096;8.716;2023-05-19T03:58:03;13.20;64.90
75161;DHT22;67232;50.096;8.716;2023-05-19T04:00:29;13.20;65.20
75161;DHT22;67232;50.096;8.716;2023-05-19T04:02:57;13.20;64.80
75161;DHT22;67232;50.096;8.716;2023-05-19T04:05:24;13.20;65.30
75161;DHT22;67232;50.096;8.716;2023-05-19T04:07:49;13.20;65.00
75161;DHT22;67232;50.096;8.716;2023-05-19T04:10:15;13.20;64.80
75161;DHT22;67232;50.096;8.716;2023-05-19T04:12:41;13.30;64.60
75161;DHT22;67232;50.096;8.716;2023-05-19T04:15:07;13.30;64.70
75161;DHT22;67232;50.096;8.716;2023-05-19T04:17:32;13.30;64.60
75161;DHT22;67232;50.096;8.716;2023-05-19T04:19:58;13.30;64.60
75161;DHT22;67232;50.096;8.716;2023-05-19T04:22:24;13.30;64.70
75161;DHT22;67232;50.096;8.716;2023-05-19T04:24:52;13.30;64.70
75161;DHT22;67232;50.096;8.716;2023-05-19T04:27:20;13.30;64.80
75161;DHT22;67232;50.096;8.716;2023-05-19T04:29:46;13.30;65.10
75161;DHT22;67232;50.096;8.716;2023-05-19T04:32:12;13.40;65.10
75161;DHT22;67232;50.096;8.716;2023-05-19T04:34:44;13.40;65.30
75161;DHT22;67232;50.096;8.716;2023-05-19T04:37:12;13.40;65.10
75161;DHT22;67232;50.096;8.716;2023-05-19T04:39:43;13.40;65.30
75161;DHT22;67232;50.096;8.716;2023-05-19T04:42:15;13.50;65.50
75161;DHT22;67232;50.096;8.716;2023-05-19T04:44:44;13.50;65.50
75161;DHT22;67232;50.096;8.716;2023-05-19T04:47:09;13.60;64.70
75161;DHT22;67232;50.096;8.716;2023-05-19T04:49:35;13.50;65.10
75161;DHT22;67232;50.096;8.716;2023-05-19T04:52:07;13.50;65.50
75161;DHT22;67232;50.096;8.716;2023-05-19T04:54:35;13.60;64.80
75161;DHT22;67232;50.096;8.716;2023-05-19T04:57:01;13.70;64.80
75161;DHT22;67232;50.096;8.716;2023-05-19T04:59:27;13.70;64.60
75161;DHT22;67232;50.096;8.716;2023-05-19T05:01:55;13.70;63.90
75161;DHT22;67232;50.096;8.716;2023-05-19T05:04:22;13.60;64.20
75161;DHT22;67232;50.096;8.716;2023-05-19T05:06:50;13.60;64.00
75161;DHT22;67232;50.096;8.716;2023-05-19T05:09:20;13.70;64.40
75161;DHT22;67232;50.096;8.716;2023-05-19T05:11:46;13.70;64.20
75161;DHT22;67232;50.096;8.716;2023-05-19T05:14:18;13.70;64.50
75161;DHT22;67232;50.096;8.716;2023-05-19T05:16:48;13.70;64.20
75161;DHT22;67232;50.096;8.716;2023-05-19T05:19:15;13.80;64.20
75161;DHT22;67232;50.096;8.716;2023-05-19T05:21:43;13.80;64.00
75161;DHT22;67232;50.096;8.716;2023-05-19T05:24:09;13.80;63.90
75161;DHT22;67232;50.096;8.716;2023-05-19T05:26:35;13.90;64.00
75161;DHT22;67232;50.096;8.716;2023-05-19T05:29:03;14.00;64.10
75161;DHT22;67232;50.096;8.716;2023-05-19T05:31:29;14.00;64.00
75161;DHT22;67232;50.096;8.716;2023-05-19T05:33:54;14.00;64.30
75161;DHT22;67232;50.096;8.716;2023-05-19T05:36:24;14.10;64.10
75161;DHT22;67232;50.096;8.716;2023-05-19T05:38:50;14.10;64.30
75161;DHT22;67232;50.096;8.716;2023-05-19T05:41:18;14.10;64.10
75161;DHT22;67232;50.096;8.716;2023-05-19T05:43:46;14.10;64.10
75161;DHT22;67232;50.096;8.716;2023-05-19T05:46:15;14.10;64.40
75161;DHT22;67232;50.096;8.716;2023-05-19T05:48:45;14.20;64.40
75161;DHT22;67232;50.096;8.716;2023-05-19T05:51:11;14.30;63.90
75161;DHT22;67232;50.096;8.716;2023-05-19T05:53:40;14.30;63.70
75161;DHT22;67232;50.096;8.716;2023-05-19T05:56:08;14.30;63.60
75161;DHT22;67232;50.096;8.716;2023-05-19T05:58:33;14.40;63.40
75161;DHT22;67232;50.096;8.716;2023-05-19T06:01:02;14.40;63.90
75161;DHT22;67232;50.096;8.716;2023-05-19T06:03:34;14.50;63.70
75161;DHT22;67232;50.096;8.716;2023-05-19T06:06:04;14.60;63.00
75161;DHT22;67232;50.096;8.716;2023-05-19T06:08:30;14.60;62.70
75161;DHT22;67232;50.096;8.716;2023-05-19T06:10:58;14.80;63.00
75161;DHT22;67232;50.096;8.716;2023-05-19T06:13:24;14.80;62.30
75161;DHT22;67232;50.096;8.716;2023-05-19T06:15:50;14.90;62.00
75161;DHT22;67232;50.096;8.716;2023-05-19T06:18:18;15.00;61.90
75161;DHT22;67232;50.096;8.716;2023-05-19T06:20:51;15.10;61.80
75161;DHT22;67232;50.096;8.716;2023-05-19T06:23:19;15.20;61.70
75161;DHT22;67232;50.096;8.716;2023-05-19T06:25:57;15.30;61.00
75161;DHT22;67232;50.096;8.716;2023-05-19T06:28:26;15.30;61.00
75161;DHT22;67232;50.096;8.716;2023-05-19T06:31:03;15.30;61.00
75161;DHT22;67232;50.096;8.716;2023-05-19T06:33:28;15.30;61.30
75161;DHT22;67232;50.096;8.716;2023-05-19T06:35:54;15.30;61.10
75161;DHT22;67232;50.096;8.716;2023-05-19T06:38:19;15.40;60.90
75161;DHT22;67232;50.096;8.716;2023-05-19T06:40:45;15.50;60.00
75161;DHT22;67232;50.096;8.716;2023-05-19T06:43:13;15.50;59.90
75161;DHT22;67232;50.096;8.716;2023-05-19T06:45:42;15.50;59.70
75161;DHT22;67232;50.096;8.716;2023-05-19T06:48:07;15.50;60.00
75161;DHT22;67232;50.096;8.716;2023-05-19T06:50:33;15.60;59.60
75161;DHT22;67232;50.096;8.716;2023-05-19T06:53:01;15.60;60.40
75161;DHT22;67232;50.096;8.716;2023-05-19T06:55:32;15.80;60.30
75161;DHT22;67232;50.096;8.716;2023-05-19T06:57:58;15.90;59.90
75161;DHT22;67232;50.096;8.716;2023-05-19T07:00:26;16.10;60.20
75161;DHT22;67232;50.096;8.716;2023-05-19T07:02:51;16.10;59.50
75161;DHT22;67232;50.096;8.716;2023-05-19T07:05:19;16.20;59.50
75161;DHT22;67232;50.096;8.716;2023-05-19T07:07:45;16.30;58.80
75161;DHT22;67232;50.096;8.716;2023-05-19T07:10:11;16.30;58.90
75161;DHT22;67232;50.096;8.716;2023-05-19T07:12:36;16.40;58.30
75161;DHT22;67232;50.096;8.716;2023-05-19T07:15:04;16.40;58.00
75161;DHT22;67232;50.096;8.716;2023-05-19T07:17:33;16.50;58.10
75161;DHT22;67232;50.096;8.716;2023-05-19T07:19:58;16.50;58.20
75161;DHT22;67232;50.096;8.716;2023-05-19T07:22:25;16.60;57.90
75161;DHT22;67232;50.096;8.716;2023-05-19T07:24:51;16.80;58.10
75161;DHT22;67232;50.096;8.716;2023-05-19T07:27:21;16.80;57.60
75161;DHT22;67232;50.096;8.716;2023-05-19T07:29:46;17.00;57.70
75161;DHT22;67232;50.096;8.716;2023-05-19T07:32:12;17.00;57.30
75161;DHT22;67232;50.096;8.716;2023-05-19T07:34:38;17.00;57.50
75161;DHT22;67232;50.096;8.716;2023-05-19T07:37:06;17.00;58.20
75161;DHT22;67232;50.096;8.716;2023-05-19T07:39:38;17.00;57.60
75161;DHT22;67232;50.096;8.716;2023-05-19T07:42:06;17.10;57.70
75161;DHT22;67232;50.096;8.716;2023-05-19T07:44:36;17.20;57.80
75161;DHT22;67232;50.096;8.716;2023-05-19T07:47:04;17.30;57.50
75161;DHT22;67232;50.096;8.716;2023-05-19T07:49:30;17.50;57.60
75161;DHT22;67232;50.096;8.716;2023-05-19T07:51:55;17.50;57.50
75161;DHT22;67232;50.096;8.716;2023-05-19T07:54:21;17.40;57.40
75161;DHT22;67232;50.096;8.716;2023-05-19T07:56:49;17.40;57.70
75161;DHT22;67232;50.096;8.716;2023-05-19T07:59:17;17.50;57.40
75161;DHT22;67232;50.096;8.716;2023-05-19T08:01:42;17.50;57.50
75161;DHT22;67232;50.096;8.716;2023-05-19T08:04:09;17.70;57.40
75161;DHT22;67232;50.096;8.716;2023-05-19T08:06:35;17.80;57.80
75161;DHT22;67232;50.096;8.716;2023-05-19T08:09:01;17.90;57.50
75161;DHT22;67232;50.096;8.716;2023-05-19T08:11:27;18.00;58.10
75161;DHT22;67232;50.096;8.716;2023-05-19T08:13:53;18.20;56.10
75161;DHT22;67232;50.096;8.716;2023-05-19T08:16:19;18.20;54.80
75161;DHT22;67232;50.096;8.716;2023-05-19T08:18:46;18.20;55.40
75161;DHT22;67232;50.096;8.716;2023-05-19T08:21:14;18.30;55.30
75161;DHT22;67232;50.096;8.716;2023-05-19T08:23:42;18.40;55.40
75161;DHT22;67232;50.096;8.716;2023-05-19T08:26:10;18.50;54.90
75161;DHT22;67232;50.096;8.716;2023-05-19T08:28:36;18.50;54.80
75161;DHT22;67232;50.096;8.716;2023-05-19T08:31:04;18.70;55.00
75161;DHT22;67232;50.096;8.716;2023-05-19T08:33:29;18.70;55.60
75161;DHT22;67232;50.096;8.716;2023-05-19T08:35:57;18.90;56.50
75161;DHT22;67232;50.096;8.716;2023-05-19T08:38:25;19.00;55.00
75161;DHT22;67232;50.096;8.716;2023-05-19T08:40:51;19.10;53.70
75161;DHT22;67232;50.096;8.716;2023-05-19T08:43:19;19.20;53.70
75161;DHT22;67232;50.096;8.716;2023-05-19T08:45:49;19.20;53.70
75161;DHT22;67232;50.096;8.716;2023-05-19T08:48:18;19.40;52.80
75161;DHT22;67232;50.096;8.716;2023-05-19T08:50:50;19.40;53.10
75161;DHT22;67232;50.096;8.716;2023-05-19T08:53:24;19.50;51.80
75161;DHT22;67232;50.096;8.716;2023-05-19T08:56:01;19.50;51.40
75161;DHT22;67232;50.096;8.716;2023-05-19T08:58:29;19.60;51.00
75161;DHT22;67232;50.096;8.716;2023-05-19T09:00:56;19.50;50.10
75161;DHT22;67232;50.096;8.716;2023-05-19T09:03:26;19.70;51.60
75161;DHT22;67232;50.096;8.716;2023-05-19T09:05:53;19.70;49.70
75161;DHT22;67232;50.096;8.716;2023-05-19T09:08:18;19.80;50.20
75161;DHT22;67232;50.096;8.716;2023-05-19T09:10:44;19.90;50.30
75161;DHT22;67232;50.096;8.716;2023-05-19T09:13:09;19.90;49.20
75161;DHT22;67232;50.096;8.716;2023-05-19T09:15:38;20.00;49.90
75161;DHT22;67232;50.096;8.716;2023-05-19T09:18:12;20.00;49.60
75161;DHT22;67232;50.096;8.716;2023-05-19T09:20:42;20.10;49.30
75161;DHT22;67232;50.096;8.716;2023-05-19T09:23:12;20.20;49.40
75161;DHT22;67232;50.096;8.716;2023-05-19T09:25:49;20.30;48.00
75161;DHT22;67232;50.096;8.716;2023-05-19T09:28:25;20.30;48.40
75161;DHT22;67232;50.096;8.716;2023-05-19T09:31:00;20.40;49.00
75161;DHT22;67232;50.096;8.716;2023-05-19T09:33:29;20.60;49.90
75161;DHT22;67232;50.096;8.716;2023-05-19T09:35:57;20.70;48.30
75161;DHT22;67232;50.096;8.716;2023-05-19T09:38:23;20.80;48.30
75161;DHT22;67232;50.096;8.716;2023-05-19T09:40:52;20.80;47.80
75161;DHT22;67232;50.096;8.716;2023-05-19T09:43:17;21.00;46.50
75161;DHT22;67232;50.096;8.716;2023-05-19T09:45:46;21.00;45.60
75161;DHT22;67232;50.096;8.716;2023-05-19T09:48:14;21.10;45.90
75161;DHT22;67232;50.096;8.716;2023-05-19T09:50:42;21.20;45.80
75161;DHT22;67232;50.096;8.716;2023-05-19T09:53:14;21.40;45.50
75161;DHT22;67232;50.096;8.716;2023-05-19T09:55:41;21.50;45.60
75161;DHT22;67232;50.096;8.716;2023-05-19T09:58:07;21.70;45.10
75161;DHT22;67232;50.096;8.716;2023-05-19T10:00:39;21.80;43.80
75161;DHT22;67232;50.096;8.716;2023-05-19T10:03:05;21.70;43.70
75161;DHT22;67232;50.096;8.716;2023-05-19T10:05:31;21.70;44.30
75161;DHT22;67232;50.096;8.716;2023-05-19T10:07:57;21.80;43.40
75161;DHT22;67232;50.096;8.716;2023-05-19T10:10:23;21.90;43.90
75161;DHT22;67232;50.096;8.716;2023-05-19T10:12:49;21.90;44.20
75161;DHT22;67232;50.096;8.716;2023-05-19T10:15:16;22.00;44.70
75161;DHT22;67232;50.096;8.716;2023-05-19T10:17:42;22.10;44.60
75161;DHT22;67232;50.096;8.716;2023-05-19T10:20:15;22.30;44.20
75161;DHT22;67232;50.096;8.716;2023-05-19T10:22:42;22.40;43.70
75161;DHT22;67232;50.096;8.716;2023-05-19T10:25:10;22.50;43.80
75161;DHT22;67232;50.096;8.716;2023-05-19T10:27:58;22.60;43.40
75161;DHT22;67232;50.096;8.716;2023-05-19T10:30:30;22.70;44.30
75161;DHT22;67232;50.096;8.716;2023-05-19T10:33:00;22.80;44.40
75161;DHT22;67232;50.096;8.716;2023-05-19T10:44:01;22.80;43.40
75161;DHT22;67232;50.096;8.716;2023-05-19T10:46:33;22.70;42.90
75161;DHT22;67232;50.096;8.716;2023-05-19T10:49:02;22.70;43.20
75161;DHT22;67232;50.096;8.716;2023-05-19T10:51:32;22.60;44.10
75161;DHT22;67232;50.096;8.716;2023-05-19T10:54:00;22.60;43.80
75161;DHT22;67232;50.096;8.716;2023-05-19T10:56:28;22.60;44.20
75161;DHT22;67232;50.096;8.716;2023-05-19T10:59:01;22.50;43.80
75161;DHT22;67232;50.096;8.716;2023-05-19T11:01:35;22.50;43.90
75161;DHT22;67232;50.096;8.716;2023-05-19T11:04:06;22.50;44.30
75161;DHT22;67232;50.096;8.716;2023-05-19T11:06:35;22.40;44.70
75161;DHT22;67232;50.096;8.716;2023-05-19T11:14:18;22.30;45.00
75161;DHT22;67232;50.096;8.716;2023-05-19T11:16:51;22.40;45.00
75161;DHT22;67232;50.096;8.716;2023-05-19T11:19:35;22.40;46.00
75161;DHT22;67232;50.096;8.716;2023-05-19T11:22:12;22.30;44.70
75161;DHT22;67232;50.096;8.716;2023-05-19T11:27:34;22.30;45.40
75161;DHT22;67232;50.096;8.716;2023-05-19T11:32:33;22.30;45.50
75161;DHT22;67232;50.096;8.716;2023-05-19T11:35:00;22.30;44.70
75161;DHT22;67232;50.096;8.716;2023-05-19T11:37:26;22.40;44.90
75161;DHT22;67232;50.096;8.716;2023-05-19T11:40:00;22.60;45.20
75161;DHT22;67232;50.096;8.716;2023-05-19T11:42:26;22.60;45.00
75161;DHT22;67232;50.096;8.716;2023-05-19T11:44:55;22.60;45.10
75161;DHT22;67232;50.096;8.716;2023-05-19T11:47:23;22.90;45.20
75161;DHT22;67232;50.096;8.716;2023-05-19T11:49:53;23.00;45.00
75161;DHT22;67232;50.096;8.716;2023-05-19T11:52:27;23.30;44.90
75161;DHT22;67232;50.096;8.716;2023-05-19T11:55:00;23.60;44.50
75161;DHT22;67232;50.096;8.716;2023-05-19T11:57:28;23.80;43.60
75161;DHT22;67232;50.096;8.716;2023-05-19T11:59:56;24.00;42.40
75161;DHT22;67232;50.096;8.716;2023-05-19T12:02:28;24.10;42.40
75161;DHT22;67232;50.096;8.716;2023-05-19T12:04:55;24.00;42.50
75161;DHT22;67232;50.096;8.716;2023-05-19T12:07:24;23.90;43.10
75161;DHT22;67232;50.096;8.716;2023-05-19T12:09:54;23.90;43.00
75161;DHT22;67232;50.096;8.716;2023-05-19T12:12:22;23.90;42.50
75161;DHT22;67232;50.096;8.716;2023-05-19T12:14:52;23.90;43.10
75161;DHT22;67232;50.096;8.716;2023-05-19T12:17:20;23.90;43.00
75161;DHT22;67232;50.096;8.716;2023-05-19T12:19:47;23.80;43.40
75161;DHT22;67232;50.096;8.716;2023-05-19T12:22:16;23.60;43.30
75161;DHT22;67232;50.096;8.716;2023-05-19T12:24:45;23.50;43.90
75161;DHT22;67232;50.096;8.716;2023-05-19T12:27:22;23.40;44.00
75161;DHT22;67232;50.096;8.716;2023-05-19T12:29:55;23.50;43.80
75161;DHT22;67232;50.096;8.716;2023-05-19T12:32:24;23.60;43.70
75161;DHT22;67232;50.096;8.716;2023-05-19T12:34:50;23.70;43.00
75161;DHT22;67232;50.096;8.716;2023-05-19T12:37:16;23.60;44.20
75161;DHT22;67232;50.096;8.716;2023-05-19T12:39:47;23.50;44.60
75161;DHT22;67232;50.096;8.716;2023-05-19T12:42:15;23.50;44.40
75161;DHT22;67232;50.096;8.716;2023-05-19T12:44:45;23.40;44.00
75161;DHT22;67232;50.096;8.716;2023-05-19T12:47:14;23.10;44.70
75161;DHT22;67232;50.096;8.716;2023-05-19T12:52:27;23.00;44.90
75161;DHT22;67232;50.096;8.716;2023-05-19T12:55:00;23.00;44.80
75161;DHT22;67232;50.096;8.716;2023-05-19T12:57:27;22.90;44.80
75161;DHT22;67232;50.096;8.716;2023-05-19T13:00:04;22.90;44.50
75161;DHT22;67232;50.096;8.716;2023-05-19T13:02:33;22.70;44.80
75161;DHT22;67232;50.096;8.716;2023-05-19T13:04:59;22.60;44.90
75161;DHT22;67232;50.096;8.716;2023-05-19T13:07:25;22.60;45.00
75161;DHT22;67232;50.096;8.716;2023-05-19T13:09:53;22.60;45.20
75161;DHT22;67232;50.096;8.716;2023-05-19T13:12:18;22.60;45.00
75161;DHT22;67232;50.096;8.716;2023-05-19T13:14:44;22.70;45.20
75161;DHT22;67232;50.096;8.716;2023-05-19T13:17:10;22.90;45.20
75161;DHT22;67232;50.096;8.716;2023-05-19T13:19:36;22.90;45.30
75161;DHT22;67232;50.096;8.716;2023-05-19T13:22:04;23.00;44.80
75161;DHT22;67232;50.096;8.716;2023-05-19T13:24:29;23.00;44.30
75161;DHT22;67232;50.096;8.716;2023-05-19T13:26:55;23.00;44.20
75161;DHT22;67232;50.096;8.716;2023-05-19T13:29:21;23.10;44.00
75161;DHT22;67232;50.096;8.716;2023-05-19T13:31:49;23.20;44.30
75161;DHT22;67232;50.096;8.716;2023-05-19T13:34:17;23.30;44.10
75161;DHT22;67232;50.096;8.716;2023-05-19T13:36:45;23.40;43.90
75161;DHT22;67232;50.096;8.716;2023-05-19T13:39:12;23.50;43.40
75161;DHT22;67232;50.096;8.716;2023-05-19T13:41:38;23.60;42.50
75161;DHT22;67232;50.096;8.716;2023-05-19T13:44:06;23.70;42.50
75161;DHT22;67232;50.096;8.716;2023-05-19T13:46:31;23.70;42.40
75161;DHT22;67232;50.096;8.716;2023-05-19T13:48:57;23.70;42.10
75161;DHT22;67232;50.096;8.716;2023-05-19T13:51:22;23.70;42.70
75161;DHT22;67232;50.096;8.716;2023-05-19T13:53:48;23.60;42.00
75161;DHT22;67232;50.096;8.716;2023-05-19T13:56:14;23.60;41.70
75161;DHT22;67232;50.096;8.716;2023-05-19T13:58:39;23.60;42.60
75161;DHT22;67232;50.096;8.716;2023-05-19T14:01:07;23.70;42.50
75161;DHT22;67232;50.096;8.716;2023-05-19T14:03:35;23.70;41.40
75161;DHT22;67232;50.096;8.716;2023-05-19T14:06:01;23.50;42.30
75161;DHT22;67232;50.096;8.716;2023-05-19T14:08:27;23.20;42.70
75161;DHT22;67232;50.096;8.716;2023-05-19T14:10:53;23.10;43.00
75161;DHT22;67232;50.096;8.716;2023-05-19T14:13:19;22.90;43.40
75161;DHT22;67232;50.096;8.716;2023-05-19T14:15:47;22.90;43.30
75161;DHT22;67232;50.096;8.716;2023-05-19T14:18:13;22.80;43.40
75161;DHT22;67232;50.096;8.716;2023-05-19T14:20:39;22.80;43.80
75161;DHT22;67232;50.096;8.716;2023-05-19T14:23:04;22.70;43.80
75161;DHT22;67232;50.096;8.716;2023-05-19T14:25:30;22.80;43.60
75161;DHT22;67232;50.096;8.716;2023-05-19T14:27:55;22.80;43.80
75161;DHT22;67232;50.096;8.716;2023-05-19T14:30:23;23.00;43.90
75161;DHT22;67232;50.096;8.716;2023-05-19T14:32:53;22.90;44.00
75161;DHT22;67232;50.096;8.716;2023-05-19T14:35:19;23.00;44.30
75161;DHT22;67232;50.096;8.716;2023-05-19T14:37:45;23.00;44.00
75161;DHT22;67232;50.096;8.716;2023-05-19T14:40:11;22.80;44.70
75161;DHT22;67232;50.096;8.716;2023-05-19T14:42:36;22.70;45.00
75161;DHT22;67232;50.096;8.716;2023-05-19T14:45:02;22.60;44.80
75161;DHT22;67232;50.096;8.716;2023-05-19T14:47:32;22.40;44.70
75161;DHT22;67232;50.096;8.716;2023-05-19T14:49:59;22.30;44.70
75161;DHT22;67232;50.096;8.716;2023-05-19T14:52:24;22.30;45.00
75161;DHT22;67232;50.096;8.716;2023-05-19T14:54:50;22.20;45.70
75161;DHT22;67232;50.096;8.716;2023-05-19T14:57:16;22.20;45.40
75161;DHT22;67232;50.096;8.716;2023-05-19T14:59:44;22.20;45.40
75161;DHT22;67232;50.096;8.716;2023-05-19T15:02:12;22.20;45.70
75161;DHT22;67232;50.096;8.716;2023-05-19T15:04:38;22.30;45.40
75161;DHT22;67232;50.096;8.716;2023-05-19T15:07:03;22.40;44.60
75161;DHT22;67232;50.096;8.716;2023-05-19T15:09:29;22.30;44.80
75161;DHT22;67232;50.096;8.716;2023-05-19T15:11:59;22.40;45.00
75161;DHT22;67232;50.096;8.716;2023-05-19T15:14:27;22.40;44.80
75161;DHT22;67232;50.096;8.716;2023-05-19T15:16:53;22.40;44.90
75161;DHT22;67232;50.096;8.716;2023-05-19T15:19:18;22.30;45.00
75161;DHT22;67232;50.096;8.716;2023-05-19T15:21:44;22.20;45.00
75161;DHT22;67232;50.096;8.716;2023-05-19T15:24:14;22.20;45.40
75161;DHT22;67232;50.096;8.716;2023-05-19T15:26:39;22.10;45.30
75161;DHT22;67232;50.096;8.716;2023-05-19T15:29:05;22.10;45.10
75161;DHT22;67232;50.096;8.716;2023-05-19T15:31:32;22.10;45.20
75161;DHT22;67232;50.096;8.716;2023-05-19T15:34:00;22.10;45.10
75161;DHT22;67232;50.096;8.716;2023-05-19T15:36:26;22.10;44.90
75161;DHT22;67232;50.096;8.716;2023-05-19T15:38:51;22.10;45.20
75161;DHT22;67232;50.096;8.716;2023-05-19T15:41:17;22.00;45.20
75161;DHT22;67232;50.096;8.716;2023-05-19T15:43:42;22.10;45.90
75161;DHT22;67232;50.096;8.716;2023-05-19T15:46:10;22.20;45.70
75161;DHT22;67232;50.096;8.716;2023-05-19T15:48:37;22.30;45.50
75161;DHT22;67232;50.096;8.716;2023-05-19T15:51:03;22.30;45.30
75161;DHT22;67232;50.096;8.716;2023-05-19T15:53:29;22.30;45.50
75161;DHT22;67232;50.096;8.716;2023-05-19T15:55:54;22.30;44.80
75161;DHT22;67232;50.096;8.716;2023-05-19T15:58:21;22.20;45.10
75161;DHT22;67232;50.096;8.716;2023-05-19T16:00:49;22.20;44.70
75161;DHT22;67232;50.096;8.716;2023-05-19T16:03:17;22.20;44.90
75161;DHT22;67232;50.096;8.716;2023-05-19T16:05:43;22.20;45.00
75161;DHT22;67232;50.096;8.716;2023-05-19T16:08:09;22.10;44.80
75161;DHT22;67232;50.096;8.716;2023-05-19T16:10:34;22.10;45.10